createdAt,value
2022-08-16T00:00:04.294Z,11.90
2022-08-16T00:01:06.819Z,11.35
2022-08-16T00:02:13.278Z,10.98
2022-08-16T00:03:15.470Z,12.80
2022-08-16T00:04:19.108Z,12.82
2022-08-16T00:05:24.508Z,11.98
2022-08-16T00:06:26.279Z,14.90
2022-08-16T00:07:30.115Z,14.40
2022-08-16T00:08:37.330Z,11.48
2022-08-16T00:09:39.349Z,11.07
2022-08-16T00:10:43.650Z,11.70
2022-08-16T00:11:46.697Z,12.13
2022-08-16T00:12:55.034Z,10.88
2022-08-16T00:13:57.032Z,11.50
2022-08-16T00:15:01.462Z,11.75
2022-08-16T00:17:06.679Z,11.73
2022-08-16T00:17:26.562Z,12.10
2022-08-16T00:18:31.659Z,12.20
2022-08-16T00:19:41.310Z,11.18
2022-08-16T00:20:46.892Z,12.20
2022-08-16T00:21:53.368Z,12.00
2022-08-16T00:22:57.981Z,11.60
2022-08-16T00:24:04.799Z,12.35
2022-08-16T00:25:11.178Z,11.95
2022-08-16T00:26:35.233Z,11.00
2022-08-16T00:27:34.576Z,13.18
2022-08-16T00:28:36.467Z,12.25
2022-08-16T00:29:38.342Z,12.60
2022-08-16T00:30:40.203Z,13.20
2022-08-16T00:31:59.763Z,14.80
2022-08-16T00:33:04.428Z,11.63
2022-08-16T00:34:06.973Z,15.60
2022-08-16T00:35:15.459Z,13.00
2022-08-16T00:36:17.792Z,14.13
2022-08-16T00:37:24.170Z,16.42
2022-08-16T00:38:40.961Z,12.60
2022-08-16T00:39:46.921Z,12.65
2022-08-16T00:40:53.768Z,12.10
2022-08-16T00:41:56.081Z,12.75
2022-08-16T00:42:58.194Z,15.80
2022-08-16T00:44:02.328Z,13.95
2022-08-16T00:45:35.682Z,12.93
2022-08-16T00:46:54.011Z,12.13
2022-08-16T00:48:30.838Z,11.85
2022-08-16T00:49:39.180Z,12.35
2022-08-16T00:50:45.364Z,13.80
2022-08-16T00:51:53.605Z,11.68
2022-08-16T00:52:57.727Z,20.02
2022-08-16T00:54:01.252Z,11.70
2022-08-16T00:55:04.231Z,12.75
2022-08-16T00:56:57.553Z,14.13
2022-08-16T00:57:59.067Z,12.52
2022-08-16T00:59:01.267Z,11.98
2022-08-16T01:00:06.441Z,11.98
2022-08-16T01:01:12.022Z,13.35
2022-08-16T01:02:31.406Z,11.18
2022-08-16T01:03:35.721Z,11.15
2022-08-16T01:04:37.808Z,12.50
2022-08-16T01:05:40.319Z,11.45
2022-08-16T01:07:00.965Z,11.88
2022-08-16T01:08:35.276Z,12.90
2022-08-16T01:09:34.225Z,11.93
2022-08-16T01:10:38.071Z,13.10
2022-08-16T01:11:55.016Z,15.02
2022-08-16T01:12:57.496Z,11.00
2022-08-16T01:14:19.972Z,12.05
2022-08-16T01:15:24.227Z,12.35
2022-08-16T01:16:28.434Z,12.40
2022-08-16T01:17:55.999Z,11.80
2022-08-16T01:19:27.078Z,12.13
2022-08-16T01:20:34.466Z,11.98
2022-08-16T01:21:40.896Z,12.05
2022-08-16T01:23:08.455Z,12.30
2022-08-16T01:24:52.468Z,11.93
2022-08-16T01:25:59.799Z,13.38
2022-08-16T01:27:20.944Z,12.02
2022-08-16T01:28:30.776Z,18.02
2022-08-16T01:29:57.803Z,13.15
2022-08-16T01:31:05.090Z,11.63
2022-08-16T01:32:06.890Z,14.52
2022-08-16T01:33:14.519Z,12.02
2022-08-16T01:34:22.718Z,14.40
2022-08-16T01:35:29.575Z,12.52
2022-08-16T01:36:37.408Z,11.20
2022-08-16T01:37:53.177Z,12.07
2022-08-16T01:38:58.117Z,11.75
2022-08-16T01:40:01.832Z,11.65
2022-08-16T01:41:12.152Z,11.30
2022-08-16T01:42:21.112Z,13.63
2022-08-16T01:43:27.261Z,12.57
2022-08-16T01:44:37.302Z,12.55
2022-08-16T01:45:41.648Z,16.80
2022-08-16T01:46:49.396Z,13.82
2022-08-16T01:47:52.975Z,11.95
2022-08-16T01:49:01.959Z,12.13
2022-08-16T01:51:08.429Z,13.05
2022-08-16T01:51:29.065Z,11.23
2022-08-16T01:52:33.559Z,11.63
2022-08-16T01:53:55.420Z,12.25
2022-08-16T01:55:06.277Z,11.38
2022-08-16T01:56:24.389Z,15.60
2022-08-16T01:57:29.146Z,13.32
2022-08-16T01:58:33.557Z,11.60
2022-08-16T01:59:39.848Z,13.10
2022-08-16T02:00:46.376Z,12.05
2022-08-16T02:01:53.150Z,11.70
2022-08-16T02:03:03.289Z,11.73
2022-08-16T02:04:10.648Z,12.05
2022-08-16T02:05:15.235Z,11.48
2022-08-16T02:06:26.074Z,10.30
2022-08-16T02:07:36.140Z,11.13
2022-08-16T02:08:38.286Z,11.63
2022-08-16T02:09:41.172Z,11.15
2022-08-16T02:10:44.221Z,13.27
2022-08-16T02:11:53.314Z,12.07
2022-08-16T02:13:00.583Z,11.55
2022-08-16T02:14:05.419Z,12.05
2022-08-16T02:15:25.518Z,11.25
2022-08-16T02:16:29.473Z,12.98
2022-08-16T02:17:34.615Z,13.40
2022-08-16T02:18:36.706Z,12.55
2022-08-16T02:19:58.899Z,12.20
2022-08-16T02:21:04.537Z,12.80
2022-08-16T02:22:34.252Z,11.48
2022-08-16T02:23:34.639Z,11.80
2022-08-16T02:24:41.104Z,11.85
2022-08-16T02:25:52.844Z,12.07
2022-08-16T02:26:56.987Z,12.45
2022-08-16T02:28:00.111Z,11.73
2022-08-16T02:29:02.468Z,12.52
2022-08-16T02:30:07.094Z,13.55
2022-08-16T02:31:14.379Z,13.18
2022-08-16T02:32:49.805Z,12.30
2022-08-16T02:33:43.995Z,14.45
2022-08-16T02:34:57.998Z,12.65
2022-08-16T02:36:05.224Z,12.77
2022-08-16T02:37:16.192Z,14.38
2022-08-16T02:38:22.965Z,12.85
2022-08-16T02:39:25.831Z,13.32
2022-08-16T02:40:32.681Z,12.60
2022-08-16T02:41:37.443Z,17.25
2022-08-16T02:42:47.879Z,13.30
2022-08-16T02:43:51.541Z,14.20
2022-08-16T02:44:56.818Z,13.68
2022-08-16T02:46:07.422Z,12.93
2022-08-16T02:47:10.674Z,13.00
2022-08-16T02:48:30.808Z,15.95
2022-08-16T02:49:59.122Z,13.55
2022-08-16T02:51:10.213Z,15.57
2022-08-16T02:52:24.470Z,13.57
2022-08-16T02:53:35.542Z,14.63
2022-08-16T02:54:37.889Z,13.98
2022-08-16T02:55:43.900Z,16.50
2022-08-16T02:56:47.895Z,13.00
2022-08-16T02:57:54.437Z,14.18
2022-08-16T02:58:57.535Z,15.18
2022-08-16T03:00:34.222Z,13.63
2022-08-16T03:02:56.524Z,13.07
2022-08-16T03:04:29.976Z,13.23
2022-08-16T03:05:22.042Z,14.48
2022-08-16T03:06:41.384Z,13.02
2022-08-16T03:07:53.084Z,15.43
2022-08-16T03:08:58.037Z,12.27
2022-08-16T03:10:04.339Z,13.05
2022-08-16T03:11:16.396Z,13.77
2022-08-16T03:12:20.242Z,17.52
2022-08-16T03:13:40.029Z,16.17
2022-08-16T03:14:43.735Z,14.20
2022-08-16T03:15:49.590Z,12.55
2022-08-16T03:16:59.353Z,14.07
2022-08-16T03:18:18.511Z,13.07
2022-08-16T03:19:47.274Z,15.18
2022-08-16T03:20:55.769Z,12.85
2022-08-16T03:21:59.009Z,14.73
2022-08-16T03:23:02.126Z,18.38
2022-08-16T03:24:04.193Z,14.35
2022-08-16T03:25:08.606Z,16.58
2022-08-16T03:26:13.543Z,13.60
2022-08-16T03:27:19.014Z,16.10
2022-08-16T03:28:21.744Z,14.15
2022-08-16T03:29:23.606Z,13.73
2022-08-16T03:30:30.334Z,13.98
2022-08-16T03:31:40.565Z,13.07
2022-08-16T03:32:47.989Z,13.52
2022-08-16T03:33:56.958Z,14.15
2022-08-16T03:34:59.657Z,12.70
2022-08-16T03:36:29.841Z,12.70
2022-08-16T03:37:28.827Z,12.25
2022-08-16T03:38:33.757Z,11.93
2022-08-16T03:39:46.461Z,14.00
2022-08-16T03:40:48.325Z,14.15
2022-08-16T03:41:59.561Z,14.85
2022-08-16T03:43:20.079Z,14.70
2022-08-16T03:44:43.311Z,12.63
2022-08-16T03:45:48.799Z,13.07
2022-08-16T03:46:58.240Z,12.25
2022-08-16T03:48:08.116Z,12.18
2022-08-16T03:49:12.457Z,12.80
2022-08-16T03:50:25.561Z,12.10
2022-08-16T03:51:28.563Z,14.60
2022-08-16T03:52:36.359Z,11.95
2022-08-16T03:53:40.723Z,17.88
2022-08-16T03:54:53.441Z,11.75
2022-08-16T03:55:59.206Z,11.55
2022-08-16T03:57:01.438Z,11.88
2022-08-16T03:58:04.595Z,14.18
2022-08-16T03:59:07.008Z,11.25
2022-08-16T04:00:36.271Z,12.00
2022-08-16T04:01:47.364Z,13.02
2022-08-16T04:03:07.735Z,12.95
2022-08-16T04:04:12.927Z,12.32
2022-08-16T04:05:27.693Z,12.05
2022-08-16T04:06:32.367Z,11.45
2022-08-16T04:07:39.011Z,12.02
2022-08-16T04:08:41.352Z,11.63
2022-08-16T04:09:45.662Z,13.60
2022-08-16T04:10:49.126Z,13.45
2022-08-16T04:11:56.711Z,12.10
2022-08-16T04:13:04.706Z,12.05
2022-08-16T04:14:30.990Z,11.27
2022-08-16T04:15:30.245Z,12.55
2022-08-16T04:16:56.524Z,13.10
2022-08-16T04:18:09.699Z,11.77
2022-08-16T04:19:11.521Z,11.07
2022-08-16T04:20:31.274Z,16.23
2022-08-16T04:21:47.133Z,12.20
2022-08-16T04:22:51.175Z,13.63
2022-08-16T04:23:54.723Z,12.75
2022-08-16T04:24:59.367Z,11.45
2022-08-16T04:26:06.724Z,14.73
2022-08-16T04:27:19.055Z,13.88
2022-08-16T04:28:52.285Z,13.82
2022-08-16T04:29:46.350Z,13.75
2022-08-16T04:30:50.764Z,12.20
2022-08-16T04:31:58.366Z,17.52
2022-08-16T04:33:08.345Z,13.45
2022-08-16T04:34:13.007Z,11.60
2022-08-16T04:35:18.565Z,13.65
2022-08-16T04:36:23.038Z,11.27
2022-08-16T04:37:25.453Z,12.43
2022-08-16T04:38:37.298Z,16.25
2022-08-16T04:39:46.789Z,12.50
2022-08-16T04:40:51.901Z,15.13
2022-08-16T04:41:57.389Z,13.57
2022-08-16T04:43:02.716Z,10.98
2022-08-16T04:44:30.933Z,12.32
2022-08-16T04:45:36.587Z,12.57
2022-08-16T04:47:02.419Z,12.40
2022-08-16T04:48:06.444Z,13.77
2022-08-16T04:50:29.791Z,12.35
2022-08-16T04:51:35.760Z,14.40
2022-08-16T04:52:39.135Z,14.07
2022-08-16T04:53:42.564Z,11.82
2022-08-16T04:54:44.639Z,12.25
2022-08-16T04:55:53.148Z,16.60
2022-08-16T04:56:58.870Z,15.80
2022-08-16T04:58:02.735Z,15.90
2022-08-16T04:59:28.002Z,12.27
2022-08-16T05:00:34.670Z,10.73
2022-08-16T05:03:07.300Z,12.90
2022-08-16T05:04:19.661Z,13.38
2022-08-16T05:05:24.204Z,11.23
2022-08-16T05:06:42.078Z,13.10
2022-08-16T05:07:58.630Z,12.70
2022-08-16T05:09:02.077Z,12.18
2022-08-16T05:10:19.790Z,19.63
2022-08-16T05:11:32.023Z,13.18
2022-08-16T05:12:37.991Z,10.73
2022-08-16T05:13:43.536Z,12.88
2022-08-16T05:15:01.545Z,17.05
2022-08-16T05:16:06.155Z,15.18
2022-08-16T05:17:09.586Z,11.65
2022-08-16T05:18:15.874Z,11.50
2022-08-16T05:19:36.060Z,12.30
2022-08-16T05:20:54.154Z,11.25
2022-08-16T05:22:03.397Z,11.88
2022-08-16T05:23:11.419Z,11.63
2022-08-16T05:24:22.171Z,13.55
2022-08-16T05:25:40.693Z,12.55
2022-08-16T05:26:51.630Z,20.23
2022-08-16T05:27:59.534Z,14.65
2022-08-16T05:29:04.376Z,11.43
2022-08-16T05:30:34.539Z,11.43
2022-08-16T05:31:37.243Z,12.75
2022-08-16T05:32:50.976Z,17.85
2022-08-16T05:33:57.115Z,12.27
2022-08-16T05:34:59.985Z,12.82
2022-08-16T05:36:03.902Z,13.30
2022-08-16T05:37:07.891Z,11.65
2022-08-16T05:38:32.762Z,15.95
2022-08-16T05:39:40.744Z,17.23
2022-08-16T05:40:43.423Z,11.75
2022-08-16T05:42:03.703Z,11.70
2022-08-16T05:43:12.169Z,22.52
2022-08-16T05:44:26.785Z,14.02
2022-08-16T05:45:37.075Z,12.40
2022-08-16T05:46:44.819Z,14.10
2022-08-16T05:47:59.626Z,13.10
2022-08-16T05:49:16.672Z,12.00
2022-08-16T05:50:28.276Z,13.20
2022-08-16T05:51:38.414Z,15.10
2022-08-16T05:52:44.911Z,14.85
2022-08-16T05:53:47.121Z,13.25
2022-08-16T05:55:00.990Z,12.27
2022-08-16T05:56:05.916Z,12.35
2022-08-16T05:57:13.310Z,28.50
2022-08-16T05:58:31.768Z,17.35
2022-08-16T05:59:38.090Z,21.65
2022-08-16T06:00:40.280Z,17.30
2022-08-16T06:01:44.688Z,17.98
2022-08-16T06:02:47.644Z,12.95
2022-08-16T06:04:34.562Z,12.88
2022-08-16T06:05:36.297Z,13.30
2022-08-16T06:06:56.107Z,17.90
2022-08-16T06:07:59.616Z,19.25
2022-08-16T06:09:07.438Z,12.98
2022-08-16T06:10:12.973Z,20.83
2022-08-16T06:11:18.664Z,14.40
2022-08-16T06:12:29.443Z,19.60
2022-08-16T06:13:37.792Z,17.45
2022-08-16T06:14:45.423Z,20.02
2022-08-16T06:15:47.280Z,13.15
2022-08-16T06:16:50.567Z,14.55
2022-08-16T06:17:55.800Z,14.38
2022-08-16T06:19:04.694Z,12.57
2022-08-16T06:20:10.049Z,12.85
2022-08-16T06:21:14.305Z,18.85
2022-08-16T06:22:47.639Z,12.65
2022-08-16T06:23:48.130Z,11.38
2022-08-16T06:24:56.030Z,16.02
2022-08-16T06:25:58.785Z,13.68
2022-08-16T06:27:05.068Z,11.48
2022-08-16T06:28:16.585Z,14.35
2022-08-16T06:29:19.780Z,14.00
2022-08-16T06:30:28.635Z,12.85
2022-08-16T06:31:31.152Z,12.93
2022-08-16T06:32:48.415Z,10.45
2022-08-16T06:33:51.725Z,13.13
2022-08-16T06:35:02.130Z,15.30
2022-08-16T06:36:09.078Z,11.90
2022-08-16T06:37:11.144Z,16.00
2022-08-16T06:38:31.894Z,12.15
2022-08-16T06:39:49.617Z,10.98
2022-08-16T06:41:18.207Z,12.25
2022-08-16T06:42:20.758Z,11.07
2022-08-16T06:43:37.879Z,18.83
2022-08-16T06:44:44.603Z,12.82
2022-08-16T06:46:31.578Z,12.10
2022-08-16T06:47:52.936Z,15.48
2022-08-16T06:48:56.713Z,14.80
2022-08-16T06:49:59.256Z,9.98
2022-08-16T06:51:10.712Z,12.48
2022-08-16T06:52:58.354Z,19.33
2022-08-16T06:53:36.640Z,11.93
2022-08-16T06:54:39.481Z,11.05
2022-08-16T06:55:43.248Z,13.82
2022-08-16T06:56:47.892Z,16.08
2022-08-16T06:57:56.378Z,13.82
2022-08-16T06:58:58.585Z,13.55
2022-08-16T07:00:24.448Z,13.35
2022-08-16T07:01:46.187Z,10.32
2022-08-16T07:02:56.772Z,14.38
2022-08-16T07:03:58.753Z,14.57
2022-08-16T07:05:15.112Z,14.68
2022-08-16T07:06:26.767Z,10.13
2022-08-16T07:07:34.334Z,15.80
2022-08-16T07:08:37.786Z,14.00
2022-08-16T07:09:43.503Z,11.52
2022-08-16T07:10:46.778Z,8.35
2022-08-16T07:11:51.667Z,14.55
2022-08-16T07:13:12.833Z,11.55
2022-08-16T07:14:24.739Z,9.82
2022-08-16T07:15:29.973Z,10.80
2022-08-16T07:16:31.717Z,14.77
2022-08-16T07:17:37.243Z,12.13
2022-08-16T07:18:59.355Z,15.48
2022-08-16T07:20:35.654Z,12.55
2022-08-16T07:21:45.554Z,11.50
2022-08-16T07:22:52.682Z,8.93
2022-08-16T07:24:07.482Z,10.85
2022-08-16T07:25:16.070Z,9.25
2022-08-16T07:26:25.294Z,11.23
2022-08-16T07:27:33.552Z,11.85
2022-08-16T07:28:41.362Z,14.68
2022-08-16T07:29:43.950Z,16.35
2022-08-16T07:30:47.346Z,13.57
2022-08-16T07:32:07.218Z,12.43
2022-08-16T07:33:10.499Z,11.05
2022-08-16T07:34:18.469Z,10.23
2022-08-16T07:35:21.478Z,14.57
2022-08-16T07:36:24.638Z,15.73
2022-08-16T07:37:27.187Z,10.60
2022-08-16T07:38:42.679Z,11.50
2022-08-16T07:39:44.918Z,17.35
2022-08-16T07:41:10.331Z,11.23
2022-08-16T07:42:10.039Z,10.68
2022-08-16T07:43:23.540Z,14.02
2022-08-16T07:45:54.842Z,12.05
2022-08-16T07:46:57.335Z,12.93
2022-08-16T07:47:59.736Z,12.60
2022-08-16T07:49:18.124Z,18.63
2022-08-16T07:50:58.686Z,11.93
2022-08-16T07:51:43.150Z,10.07
2022-08-16T07:52:46.827Z,13.80
2022-08-16T07:54:02.519Z,11.55
2022-08-16T07:55:18.649Z,13.25
2022-08-16T07:56:20.534Z,10.10
2022-08-16T07:57:44.273Z,13.10
2022-08-16T07:58:59.490Z,10.65
2022-08-16T08:00:01.791Z,11.75
2022-08-16T08:01:10.377Z,9.43
2022-08-16T08:02:20.208Z,17.98
2022-08-16T08:03:38.842Z,12.55
2022-08-16T08:04:44.791Z,12.20
2022-08-16T08:05:48.434Z,11.55
2022-08-16T08:06:51.427Z,10.32
2022-08-16T08:07:57.548Z,10.40
2022-08-16T08:09:00.481Z,12.95
2022-08-16T08:10:04.734Z,13.15
2022-08-16T08:11:09.560Z,12.48
2022-08-16T08:12:32.607Z,12.85
2022-08-16T08:13:42.261Z,10.73
2022-08-16T08:14:48.772Z,14.07
2022-08-16T08:15:53.386Z,12.45
2022-08-16T08:16:55.793Z,12.05
2022-08-16T08:18:30.482Z,10.70
2022-08-16T08:19:26.514Z,10.23
2022-08-16T08:20:29.108Z,10.00
2022-08-16T08:21:59.043Z,10.48
2022-08-16T08:23:20.960Z,9.57
2022-08-16T08:24:32.077Z,10.80
2022-08-16T08:25:53.539Z,11.90
2022-08-16T08:27:02.440Z,13.98
2022-08-16T08:28:06.838Z,17.30
2022-08-16T08:29:15.853Z,11.20
2022-08-16T08:30:51.658Z,10.18
2022-08-16T08:31:47.039Z,16.20
2022-08-16T08:33:00.246Z,18.60
2022-08-16T08:34:07.308Z,13.95
2022-08-16T08:35:09.483Z,8.70
2022-08-16T08:36:22.652Z,12.20
2022-08-16T08:37:54.204Z,12.77
2022-08-16T08:38:52.366Z,10.35
2022-08-16T08:39:55.622Z,10.98
2022-08-16T08:40:58.414Z,9.25
2022-08-16T08:42:03.629Z,10.80
2022-08-16T08:43:11.451Z,12.38
2022-08-16T08:44:29.374Z,15.65
2022-08-16T08:45:47.033Z,9.75
2022-08-16T08:47:00.036Z,11.63
2022-08-16T08:48:05.950Z,11.90
2022-08-16T08:49:09.013Z,8.95
2022-08-16T08:50:32.001Z,10.50
2022-08-16T08:51:38.433Z,12.02
2022-08-16T08:52:47.905Z,12.73
2022-08-16T08:53:57.306Z,15.07
2022-08-16T08:55:09.170Z,10.32
2022-08-16T08:56:22.446Z,14.15
2022-08-16T08:57:28.781Z,11.88
2022-08-16T08:58:53.990Z,10.52
2022-08-16T09:00:13.813Z,11.50
2022-08-16T09:02:34.153Z,12.90
2022-08-16T09:03:39.388Z,10.80
2022-08-16T09:04:47.762Z,14.70
2022-08-16T09:05:55.740Z,17.63
2022-08-16T09:06:58.665Z,18.27
2022-08-16T09:08:06.172Z,11.35
2022-08-16T09:09:33.179Z,12.43
2022-08-16T09:10:40.937Z,11.05
2022-08-16T09:11:45.735Z,13.98
2022-08-16T09:12:50.909Z,12.80
2022-08-16T09:13:59.266Z,8.95
2022-08-16T09:15:02.255Z,10.85
2022-08-16T09:16:05.861Z,13.00
2022-08-16T09:17:11.764Z,10.82
2022-08-16T09:18:27.202Z,8.77
2022-08-16T09:19:40.978Z,7.20
2022-08-16T09:20:58.549Z,7.97
2022-08-16T09:22:02.129Z,7.60
2022-08-16T09:23:04.393Z,9.40
2022-08-16T09:24:13.057Z,7.35
2022-08-16T09:25:35.466Z,8.27
2022-08-16T09:26:45.632Z,11.07
2022-08-16T09:27:57.769Z,11.25
2022-08-16T09:29:16.787Z,14.65
2022-08-16T09:30:42.984Z,13.68
2022-08-16T09:31:46.580Z,9.67
2022-08-16T09:32:49.660Z,12.10
2022-08-16T09:33:53.061Z,7.78
2022-08-16T09:34:54.700Z,11.20
2022-08-16T09:36:01.189Z,11.45
2022-08-16T09:37:03.333Z,8.13
2022-08-16T09:38:31.269Z,13.93
2022-08-16T09:39:41.314Z,11.23
2022-08-16T09:40:47.086Z,7.38
2022-08-16T09:41:53.335Z,21.40
2022-08-16T09:42:58.954Z,14.13
2022-08-16T09:45:12.534Z,11.18
2022-08-16T09:45:25.686Z,10.27
2022-08-16T09:46:44.664Z,13.48
2022-08-16T09:49:03.842Z,9.07
2022-08-16T09:50:11.776Z,11.95
2022-08-16T09:51:14.120Z,6.43
2022-08-16T09:52:15.764Z,9.90
2022-08-16T09:53:21.073Z,8.23
2022-08-16T09:54:23.990Z,9.25
2022-08-16T09:55:34.177Z,8.75
2022-08-16T09:56:52.081Z,8.38
2022-08-16T09:57:54.814Z,11.13
2022-08-16T09:59:03.752Z,7.70
2022-08-16T10:00:44.324Z,7.85
2022-08-16T10:01:34.576Z,8.68
2022-08-16T10:02:53.074Z,11.18
2022-08-16T10:04:02.555Z,11.52
2022-08-16T10:05:06.021Z,8.13
2022-08-16T10:06:07.772Z,7.65
2022-08-16T10:07:15.933Z,7.97
2022-08-16T10:08:25.494Z,7.15
2022-08-16T10:11:09.506Z,9.45
2022-08-16T10:12:29.994Z,6.80
2022-08-16T10:13:33.844Z,9.23
2022-08-16T10:14:36.579Z,7.68
2022-08-16T10:15:44.188Z,17.27
2022-08-16T10:17:02.778Z,8.52
2022-08-16T10:19:00.427Z,11.27
2022-08-16T10:19:31.870Z,13.45
2022-08-16T10:20:39.144Z,6.78
2022-08-16T10:21:41.324Z,11.15
2022-08-16T10:22:43.131Z,10.07
2022-08-16T10:23:46.136Z,9.45
2022-08-16T10:24:56.192Z,9.07
2022-08-16T10:27:20.844Z,8.68
2022-08-16T10:27:27.580Z,10.25
2022-08-16T10:28:40.292Z,8.50
2022-08-16T10:30:01.271Z,5.63
2022-08-16T10:31:05.503Z,8.65
2022-08-16T10:32:08.478Z,9.85
2022-08-16T10:33:13.541Z,14.38
2022-08-16T10:34:30.771Z,10.38
2022-08-16T10:35:33.742Z,8.43
2022-08-16T10:36:38.877Z,9.45
2022-08-16T10:37:41.659Z,7.47
2022-08-16T10:38:44.038Z,9.20
2022-08-16T10:39:45.944Z,7.03
2022-08-16T10:40:48.454Z,7.45
2022-08-16T10:41:50.134Z,10.50
2022-08-16T10:42:51.910Z,8.52
2022-08-16T10:43:53.783Z,9.38
2022-08-16T10:44:55.411Z,7.25
2022-08-16T10:46:00.211Z,9.45
2022-08-16T10:47:03.018Z,11.10
2022-08-16T10:48:28.201Z,8.00
2022-08-16T10:49:31.244Z,15.23
2022-08-16T10:50:34.206Z,7.97
2022-08-16T10:52:01.201Z,9.43
2022-08-16T10:53:07.548Z,5.60
2022-08-16T10:54:28.607Z,12.18
2022-08-16T10:55:43.763Z,10.15
2022-08-16T10:56:55.564Z,7.18
2022-08-16T10:58:00.058Z,7.70
2022-08-16T11:00:37.993Z,5.97
2022-08-16T11:01:44.010Z,7.70
2022-08-16T11:03:42.137Z,7.60
2022-08-16T11:05:04.652Z,7.35
2022-08-16T11:07:43.690Z,11.38
2022-08-16T11:08:17.954Z,9.45
2022-08-16T11:09:43.729Z,9.13
2022-08-16T11:11:06.819Z,9.32
2022-08-16T11:12:13.953Z,11.52
2022-08-16T11:17:28.702Z,9.05
2022-08-16T11:19:03.547Z,8.45
2022-08-16T11:21:28.981Z,13.35
2022-08-16T11:22:42.046Z,12.10
2022-08-16T11:23:57.512Z,5.07
2022-08-16T11:26:03.779Z,8.35
2022-08-16T11:26:24.012Z,10.40
2022-08-16T11:27:36.058Z,11.55
2022-08-16T11:30:00.063Z,7.38
2022-08-16T11:31:02.863Z,10.73
2022-08-16T11:32:06.463Z,6.50
2022-08-16T11:33:10.605Z,8.52
2022-08-16T11:34:16.550Z,7.95
2022-08-16T11:36:59.378Z,9.73
2022-08-16T11:38:47.899Z,9.20
2022-08-16T11:39:34.181Z,10.07
2022-08-16T11:40:44.642Z,4.35
2022-08-16T11:42:55.081Z,16.00
2022-08-16T11:43:56.818Z,5.65
2022-08-16T11:44:58.524Z,7.30
2022-08-16T11:46:44.899Z,9.55
2022-08-16T11:47:25.064Z,9.07
2022-08-16T11:48:30.236Z,5.60
2022-08-16T11:49:31.838Z,6.68
2022-08-16T11:50:34.554Z,7.00
2022-08-16T11:51:36.413Z,6.00
2022-08-16T11:52:39.174Z,12.38
2022-08-16T11:53:48.278Z,12.40
2022-08-16T11:54:56.929Z,9.23
2022-08-16T11:56:00.041Z,7.20
2022-08-16T11:57:01.809Z,11.50
2022-08-16T11:58:04.293Z,8.18
2022-08-16T11:59:06.495Z,6.22
2022-08-16T12:00:33.678Z,6.60
2022-08-16T12:01:44.605Z,6.95
2022-08-16T12:02:57.560Z,5.50
2022-08-16T12:03:59.490Z,10.20
2022-08-16T12:05:02.241Z,5.20
2022-08-16T12:06:24.995Z,9.45
2022-08-16T12:07:28.155Z,6.95
2022-08-16T12:08:31.589Z,7.72
2022-08-16T12:09:33.859Z,7.10
2022-08-16T12:10:45.276Z,4.43
2022-08-16T12:11:47.402Z,4.65
2022-08-16T12:12:55.208Z,9.10
2022-08-16T12:14:02.119Z,9.05
2022-08-16T12:15:07.264Z,9.10
2022-08-16T12:16:10.589Z,8.55
2022-08-16T12:17:12.374Z,8.30
2022-08-16T12:18:20.604Z,9.77
2022-08-16T12:19:35.160Z,8.88
2022-08-16T12:20:40.433Z,8.50
2022-08-16T12:21:59.057Z,9.90
2022-08-16T12:23:01.451Z,5.50
2022-08-16T12:24:05.728Z,9.48
2022-08-16T12:25:12.136Z,7.57
2022-08-16T12:26:13.934Z,4.68
2022-08-16T12:27:15.615Z,8.02
2022-08-16T12:28:36.920Z,4.93
2022-08-16T12:29:40.308Z,6.03
2022-08-16T12:30:45.791Z,7.72
2022-08-16T12:32:01.649Z,4.13
2022-08-16T12:33:16.162Z,7.45
2022-08-16T12:34:29.018Z,6.70
2022-08-16T12:35:32.565Z,7.18
2022-08-16T12:36:35.671Z,8.55
2022-08-16T12:37:38.719Z,4.60
2022-08-16T12:38:48.610Z,6.70
2022-08-16T12:39:56.230Z,5.63
2022-08-16T12:40:58.228Z,4.97
2022-08-16T12:42:00.031Z,6.38
2022-08-16T12:43:06.198Z,5.78
2022-08-16T12:44:08.020Z,10.80
2022-08-16T12:45:15.183Z,5.47
2022-08-16T12:46:21.277Z,4.95
2022-08-16T12:47:41.859Z,6.15
2022-08-16T12:48:59.037Z,12.75
2022-08-16T12:50:01.086Z,9.32
2022-08-16T12:51:10.924Z,5.63
2022-08-16T12:52:33.111Z,3.83
2022-08-16T12:53:40.051Z,5.53
2022-08-16T12:54:42.047Z,4.57
2022-08-16T12:55:44.887Z,4.50
2022-08-16T12:56:48.124Z,6.63
2022-08-16T12:57:58.598Z,5.35
2022-08-16T12:59:07.530Z,14.52
2022-08-16T13:00:26.758Z,5.07
2022-08-16T13:01:36.317Z,8.05
2022-08-16T13:02:38.435Z,7.22
2022-08-16T13:03:41.395Z,5.30
2022-08-16T13:04:43.174Z,10.15
2022-08-16T13:05:53.230Z,8.32
2022-08-16T13:06:58.977Z,6.82
2022-08-16T13:08:01.001Z,5.70
2022-08-16T13:09:18.241Z,6.90
2022-08-16T13:10:37.819Z,5.57
2022-08-16T13:11:48.344Z,7.22
2022-08-16T13:12:57.257Z,11.27
2022-08-16T13:13:59.332Z,14.13
2022-08-16T13:15:02.254Z,5.70
2022-08-16T13:16:15.170Z,13.35
2022-08-16T13:17:26.413Z,6.18
2022-08-16T13:18:35.603Z,12.02
2022-08-16T13:20:08.662Z,4.50
2022-08-16T13:21:02.177Z,4.95
2022-08-16T13:22:04.625Z,10.15
2022-08-16T13:23:09.933Z,4.05
2022-08-16T13:24:12.739Z,8.15
2022-08-16T13:25:22.150Z,5.32
2022-08-16T13:26:26.445Z,9.02
2022-08-16T13:28:01.556Z,5.30
2022-08-16T13:28:50.505Z,8.63
2022-08-16T13:29:57.570Z,5.95
2022-08-16T13:31:00.233Z,7.03
2022-08-16T13:32:02.377Z,6.78
2022-08-16T13:33:11.324Z,5.68
2022-08-16T13:34:17.710Z,6.00
2022-08-16T13:35:22.494Z,5.18
2022-08-16T13:36:48.456Z,8.20
2022-08-16T13:37:45.896Z,6.70
2022-08-16T13:38:49.705Z,7.35
2022-08-16T13:39:53.113Z,5.07
2022-08-16T13:40:56.861Z,10.02
2022-08-16T13:42:02.238Z,5.03
2022-08-16T13:43:04.080Z,8.15
2022-08-16T13:44:09.349Z,5.68
2022-08-16T13:45:15.845Z,6.82
2022-08-16T13:46:17.655Z,11.75
2022-08-16T13:47:19.654Z,9.05
2022-08-16T13:48:24.847Z,4.85
2022-08-16T13:49:27.463Z,4.20
2022-08-16T13:50:49.118Z,4.97
2022-08-16T13:51:53.583Z,10.70
2022-08-16T13:52:56.005Z,6.15
2022-08-16T13:54:03.940Z,12.20
2022-08-16T13:55:06.769Z,6.47
2022-08-16T13:56:24.777Z,4.93
2022-08-16T13:57:53.266Z,9.48
2022-08-16T13:58:54.531Z,3.50
2022-08-16T13:59:57.556Z,6.10
2022-08-16T14:01:00.848Z,11.07
2022-08-16T14:02:06.642Z,4.65
2022-08-16T14:03:09.109Z,11.88
2022-08-16T14:04:19.062Z,7.35
2022-08-16T14:05:28.599Z,7.03
2022-08-16T14:06:31.215Z,7.80
2022-08-16T14:07:34.495Z,9.23
2022-08-16T14:08:43.254Z,2.92
2022-08-16T14:09:44.968Z,4.05
2022-08-16T14:10:47.078Z,6.85
2022-08-16T14:11:53.416Z,3.45
2022-08-16T14:12:55.818Z,5.63
2022-08-16T14:13:59.102Z,5.43
2022-08-16T14:15:01.566Z,4.57
2022-08-16T14:16:05.511Z,7.50
2022-08-16T14:17:16.491Z,5.53
2022-08-16T14:18:20.491Z,2.95
2022-08-16T14:19:25.332Z,11.40
2022-08-16T14:20:28.362Z,6.15
2022-08-16T14:21:35.270Z,7.22
2022-08-16T14:22:40.024Z,6.85
2022-08-16T14:23:47.129Z,4.60
2022-08-16T14:24:51.597Z,8.60
2022-08-16T14:25:53.803Z,6.50
2022-08-16T14:26:56.183Z,7.50
2022-08-16T14:27:59.092Z,2.65
2022-08-16T14:29:03.596Z,3.25
2022-08-16T14:30:08.044Z,6.95
2022-08-16T14:31:10.227Z,3.47
2022-08-16T14:32:27.074Z,6.38
2022-08-16T14:33:35.518Z,3.78
2022-08-16T14:34:37.642Z,4.88
2022-08-16T14:35:49.167Z,3.85
2022-08-16T14:36:55.021Z,2.60
2022-08-16T14:37:57.076Z,6.10
2022-08-16T14:39:00.539Z,9.55
2022-08-16T14:40:03.861Z,4.20
2022-08-16T14:41:10.203Z,7.15
2022-08-16T14:42:18.412Z,3.92
2022-08-16T14:43:20.380Z,3.05
2022-08-16T14:44:26.046Z,4.43
2022-08-16T14:45:29.448Z,4.28
2022-08-16T14:46:33.261Z,2.65
2022-08-16T14:47:38.358Z,7.07
2022-08-16T14:48:40.081Z,10.82
2022-08-16T14:49:42.730Z,4.00
2022-08-16T14:50:45.233Z,6.45
2022-08-16T14:51:48.716Z,3.20
2022-08-16T14:52:58.378Z,3.58
2022-08-16T14:54:02.590Z,4.60
2022-08-16T14:55:06.046Z,4.07
2022-08-16T14:56:08.658Z,2.30
2022-08-16T14:57:19.336Z,10.52
2022-08-16T14:58:35.115Z,3.00
2022-08-16T14:59:43.749Z,6.35
2022-08-16T15:00:50.717Z,5.25
2022-08-16T15:01:59.705Z,3.63
2022-08-16T15:03:05.876Z,7.68
2022-08-16T15:04:08.657Z,4.60
2022-08-16T15:05:12.606Z,2.22
2022-08-16T15:06:16.422Z,7.72
2022-08-16T15:07:21.728Z,11.23
2022-08-16T15:08:34.130Z,7.70
2022-08-16T15:09:44.771Z,1.65
2022-08-16T15:11:02.909Z,6.68
2022-08-16T15:12:18.948Z,3.83
2022-08-16T15:13:29.015Z,4.40
2022-08-16T15:14:30.848Z,4.13
2022-08-16T15:15:34.425Z,14.02
2022-08-16T15:16:36.944Z,4.68
2022-08-16T15:17:56.668Z,4.05
2022-08-16T15:18:59.436Z,6.47